createdAt,value
2023-02-15T00:01:36.906Z,60.64
2023-02-15T00:04:07.507Z,60.73
2023-02-15T00:06:36.734Z,60.86
2023-02-15T00:09:05.299Z,60.95
2023-02-15T00:11:41.428Z,60.79
2023-02-15T00:14:15.974Z,60.67
2023-02-15T00:16:46.405Z,60.77
2023-02-15T00:19:17.691Z,61.14
2023-02-15T00:21:48.727Z,61.45
2023-02-15T00:24:19.910Z,61.58
2023-02-15T00:26:48.797Z,61.73
2023-02-15T00:29:17.875Z,61.85
2023-02-15T00:31:48.931Z,61.84
2023-02-15T00:34:24.478Z,61.75
2023-02-15T00:36:52.908Z,61.74
2023-02-15T00:39:22.561Z,61.78
2023-02-15T00:41:52.194Z,61.89
2023-02-15T00:44:20.976Z,61.94
2023-02-15T00:46:50.879Z,61.89
2023-02-15T00:49:19.745Z,61.80
2023-02-15T00:51:48.393Z,61.83
2023-02-15T00:54:17.268Z,61.70
2023-02-15T00:56:45.966Z,61.62
2023-02-15T00:59:17.513Z,61.51
2023-02-15T01:01:46.628Z,61.49
2023-02-15T01:04:15.331Z,61.34
2023-02-15T01:06:46.853Z,61.05
2023-02-15T01:12:02.387Z,60.34
2023-02-15T01:14:32.148Z,60.34
2023-02-15T01:17:00.977Z,60.29
2023-02-15T01:19:31.316Z,60.25
2023-02-15T01:22:03.192Z,60.35
2023-02-15T01:24:34.159Z,60.32
2023-02-15T01:27:05.507Z,60.23
2023-02-15T01:29:35.138Z,60.14
2023-02-15T01:32:04.932Z,60.28
2023-02-15T01:34:34.334Z,60.33
2023-02-15T01:37:03.633Z,60.29
2023-02-15T01:39:32.148Z,59.77
2023-02-15T01:42:01.223Z,59.55
2023-02-15T01:44:52.244Z,59.44
2023-02-15T01:47:41.691Z,59.40
2023-02-15T01:50:28.540Z,59.28
2023-02-15T01:53:08.709Z,59.11
2023-02-15T01:55:48.180Z,58.95
2023-02-15T01:58:17.950Z,58.84
2023-02-15T02:00:47.778Z,58.54
2023-02-15T02:03:17.647Z,58.25
2023-02-15T02:05:47.145Z,58.18
2023-02-15T02:08:15.715Z,58.20
2023-02-15T02:10:46.002Z,58.22
2023-02-15T02:13:17.819Z,57.85
2023-02-15T02:16:04.281Z,57.87
2023-02-15T02:19:00.451Z,57.64
2023-02-15T02:22:05.613Z,57.14
2023-02-15T02:25:15.704Z,56.82
2023-02-15T02:28:09.596Z,56.77
2023-02-15T02:30:58.734Z,56.30
2023-02-15T02:33:45.944Z,56.00
2023-02-15T02:36:22.996Z,55.78
2023-02-15T02:39:19.983Z,55.36
2023-02-15T02:42:03.248Z,55.36
2023-02-15T02:44:49.831Z,55.45
2023-02-15T02:47:24.812Z,55.24
2023-02-15T02:50:09.212Z,54.87
2023-02-15T02:52:47.668Z,54.99
2023-02-15T02:55:48.303Z,54.87
2023-02-15T02:58:33.980Z,55.13
2023-02-15T03:01:07.028Z,55.21
2023-02-15T03:03:46.517Z,55.24
2023-02-15T03:06:27.185Z,55.38
2023-02-15T03:09:00.560Z,55.57
2023-02-15T03:11:30.285Z,55.66
2023-02-15T03:13:58.944Z,55.67
2023-02-15T03:16:28.175Z,55.65
2023-02-15T03:19:20.175Z,55.93
2023-02-15T03:21:58.841Z,56.07
2023-02-15T03:24:54.531Z,56.15
2023-02-15T03:27:30.532Z,56.22
2023-02-15T03:29:59.638Z,56.29
2023-02-15T03:32:29.984Z,56.30
2023-02-15T03:34:58.575Z,56.42
2023-02-15T03:37:38.032Z,56.12
2023-02-15T03:40:39.965Z,55.92
2023-02-15T03:43:20.252Z,56.01
2023-02-15T03:45:56.162Z,55.47
2023-02-15T03:48:39.774Z,55.84
2023-02-15T03:51:31.558Z,56.07
2023-02-15T03:54:13.143Z,55.96
2023-02-15T03:56:44.828Z,56.15
2023-02-15T03:59:31.815Z,56.00
2023-02-15T04:02:17.898Z,55.96
2023-02-15T04:04:48.339Z,55.96
2023-02-15T04:07:17.259Z,55.92
2023-02-15T04:10:04.291Z,55.81
2023-02-15T04:12:33.649Z,55.91
2023-02-15T04:15:24.526Z,55.97
2023-02-15T04:17:54.717Z,55.98
2023-02-15T04:20:42.512Z,55.98
2023-02-15T04:23:29.913Z,55.99
2023-02-15T04:25:59.011Z,56.07
2023-02-15T04:28:28.996Z,56.21
2023-02-15T04:30:57.828Z,56.28
2023-02-15T04:33:28.167Z,56.24
2023-02-15T04:35:57.002Z,56.13
2023-02-15T04:38:26.237Z,56.09
2023-02-15T04:40:55.290Z,56.32
2023-02-15T04:43:23.849Z,56.40
2023-02-15T04:45:52.934Z,56.49
2023-02-15T04:48:22.045Z,56.59
2023-02-15T04:50:51.214Z,56.73
2023-02-15T04:53:20.216Z,56.93
2023-02-15T04:55:49.053Z,56.94
2023-02-15T04:58:17.616Z,57.08
2023-02-15T05:00:46.256Z,57.09
2023-02-15T05:03:15.169Z,57.21
2023-02-15T05:05:44.967Z,57.27
2023-02-15T05:08:13.577Z,57.42
2023-02-15T05:10:43.743Z,57.55
2023-02-15T05:13:13.024Z,57.65
2023-02-15T05:15:49.730Z,57.49
2023-02-15T05:18:20.786Z,57.54
2023-02-15T05:20:49.531Z,57.64
2023-02-15T05:23:20.792Z,57.67
2023-02-15T05:26:08.229Z,57.73
2023-02-15T05:28:37.545Z,57.69
2023-02-15T05:31:16.124Z,57.70
2023-02-15T05:33:44.932Z,57.62
2023-02-15T05:36:13.486Z,57.62
2023-02-15T05:38:42.180Z,57.72
2023-02-15T05:41:11.277Z,57.63
2023-02-15T05:43:40.135Z,57.57
2023-02-15T05:46:08.622Z,57.66
2023-02-15T05:48:37.518Z,57.74
2023-02-15T05:51:13.308Z,57.47
2023-02-15T05:53:43.401Z,57.16
2023-02-15T05:56:12.722Z,57.25
2023-02-15T05:58:42.058Z,56.95
2023-02-15T06:01:18.024Z,56.65
2023-02-15T06:03:46.789Z,56.22
2023-02-15T06:06:16.964Z,56.30
2023-02-15T06:08:45.873Z,56.04
2023-02-15T06:11:14.691Z,55.49
2023-02-15T06:13:43.314Z,55.13
2023-02-15T06:16:14.021Z,55.40
2023-02-15T06:18:43.607Z,55.44
2023-02-15T06:21:13.527Z,55.06
2023-02-15T06:23:44.526Z,54.75
2023-02-15T06:26:13.310Z,54.72
2023-02-15T06:28:43.314Z,54.78
2023-02-15T06:31:12.330Z,54.95
2023-02-15T06:33:42.458Z,55.13
2023-02-15T06:36:11.751Z,55.43
2023-02-15T06:38:41.222Z,55.76
2023-02-15T06:41:11.392Z,55.87
2023-02-15T06:43:41.274Z,56.04
2023-02-15T06:46:09.868Z,56.16
2023-02-15T06:48:39.840Z,56.01
2023-02-15T06:51:08.511Z,55.96
2023-02-15T06:53:36.926Z,56.26
2023-02-15T06:56:07.318Z,56.22
2023-02-15T06:58:42.216Z,56.44
2023-02-15T07:01:11.254Z,56.63
2023-02-15T07:03:39.802Z,56.88
2023-02-15T07:06:09.636Z,56.90
2023-02-15T07:08:39.214Z,56.62
2023-02-15T07:11:27.281Z,56.48
2023-02-15T07:13:55.935Z,56.42
2023-02-15T07:16:24.619Z,56.21
2023-02-15T07:18:53.284Z,56.01
2023-02-15T07:21:22.212Z,56.14
2023-02-15T07:23:50.964Z,55.97
2023-02-15T07:26:19.576Z,56.01
2023-02-15T07:28:48.320Z,56.08
2023-02-15T07:31:17.134Z,56.24
2023-02-15T07:33:47.064Z,56.34
2023-02-15T07:36:16.006Z,56.53
2023-02-15T07:38:45.469Z,56.41
2023-02-15T07:41:15.474Z,56.41
2023-02-15T07:43:45.335Z,56.62
2023-02-15T07:46:17.211Z,56.39
2023-02-15T07:48:46.028Z,56.17
2023-02-15T07:51:19.718Z,56.32
2023-02-15T07:53:48.312Z,56.52
2023-02-15T07:56:18.194Z,56.69
2023-02-15T07:58:52.370Z,56.55
2023-02-15T08:01:27.632Z,56.61
2023-02-15T08:03:57.966Z,56.68
2023-02-15T08:06:29.350Z,56.12
2023-02-15T08:08:58.289Z,55.57
2023-02-15T08:11:32.968Z,54.13
2023-02-15T08:14:09.050Z,53.17
2023-02-15T08:16:56.735Z,52.79
2023-02-15T08:19:30.204Z,51.48
2023-02-15T08:22:04.816Z,50.73
2023-02-15T08:24:37.332Z,50.18
2023-02-15T08:27:10.273Z,49.52
2023-02-15T08:29:40.248Z,48.82
2023-02-15T08:32:12.851Z,46.96
2023-02-15T08:34:42.965Z,46.18
2023-02-15T08:39:43.019Z,45.74
2023-02-15T08:42:12.044Z,46.39
2023-02-15T08:44:41.050Z,46.42
2023-02-15T08:47:09.885Z,47.10
2023-02-15T08:49:41.168Z,47.35
2023-02-15T08:52:10.198Z,48.00
2023-02-15T08:54:39.064Z,47.84
2023-02-15T08:57:09.849Z,47.87
2023-02-15T08:59:38.954Z,48.19
2023-02-15T09:02:18.161Z,48.45
2023-02-15T09:05:04.372Z,48.60
2023-02-15T09:07:41.914Z,49.53
2023-02-15T09:10:34.592Z,49.40
2023-02-15T09:13:22.543Z,49.63
2023-02-15T09:16:08.045Z,49.64
2023-02-15T09:18:44.898Z,50.09
2023-02-15T09:21:27.835Z,50.22
2023-02-15T09:24:09.128Z,50.57
2023-02-15T09:26:48.923Z,50.32
2023-02-15T09:29:26.774Z,50.54
2023-02-15T09:32:02.267Z,50.81
2023-02-15T09:34:36.502Z,51.12
2023-02-15T09:37:10.916Z,51.12
2023-02-15T09:39:49.189Z,51.41
2023-02-15T09:42:38.968Z,51.28
2023-02-15T09:45:32.627Z,51.05
2023-02-15T09:48:31.882Z,51.07
2023-02-15T09:51:38.693Z,51.08
2023-02-15T09:54:33.451Z,51.34
2023-02-15T09:57:10.485Z,51.62
2023-02-15T09:59:57.739Z,51.15
2023-02-15T10:03:16.195Z,50.76
2023-02-15T10:06:16.240Z,50.71
2023-02-15T10:09:19.812Z,50.80
2023-02-15T10:12:11.404Z,51.07
2023-02-15T10:15:03.530Z,51.17
2023-02-15T10:17:54.445Z,50.43
2023-02-15T10:20:29.310Z,50.16
2023-02-15T10:23:36.812Z,49.92
2023-02-15T10:26:19.917Z,49.75
2023-02-15T10:29:08.011Z,50.27
2023-02-15T10:31:53.868Z,50.61
2023-02-15T10:34:34.326Z,50.13
2023-02-15T10:37:47.061Z,49.76
2023-02-15T10:40:53.401Z,49.43
2023-02-15T10:43:37.408Z,48.98
2023-02-15T10:46:51.303Z,48.75
2023-02-15T10:49:43.380Z,48.70
2023-02-15T10:52:37.053Z,48.94
2023-02-15T10:55:49.117Z,47.61
2023-02-15T10:58:50.199Z,45.91
2023-02-15T11:01:45.105Z,45.56
2023-02-15T11:04:46.857Z,44.29
2023-02-15T11:07:44.518Z,44.75
2023-02-15T11:10:37.131Z,45.08
2023-02-15T11:13:12.307Z,44.70
2023-02-15T11:16:05.211Z,44.19
2023-02-15T11:18:40.754Z,44.43
2023-02-15T11:21:20.867Z,44.16
2023-02-15T11:23:51.386Z,43.65
2023-02-15T11:26:45.592Z,43.94
2023-02-15T11:29:39.245Z,44.15
2023-02-15T11:32:27.804Z,43.92
2023-02-15T11:35:15.639Z,43.98
2023-02-15T11:38:04.705Z,43.80
2023-02-15T11:40:50.295Z,43.14
2023-02-15T11:43:27.860Z,42.92
2023-02-15T11:45:56.524Z,42.85
2023-02-15T11:48:26.098Z,42.31
2023-02-15T11:50:55.497Z,42.18
2023-02-15T11:53:28.275Z,41.67
2023-02-15T11:55:56.983Z,41.43
2023-02-15T11:58:42.572Z,41.87
2023-02-15T12:01:33.943Z,41.58
2023-02-15T12:04:25.248Z,41.74
2023-02-15T12:07:23.310Z,41.59
2023-02-15T12:10:07.235Z,42.06
2023-02-15T12:12:38.002Z,41.53
2023-02-15T12:15:08.976Z,41.67
2023-02-15T12:17:54.056Z,41.68
2023-02-15T12:20:33.481Z,41.51
2023-02-15T12:23:08.037Z,41.41
2023-02-15T12:25:55.473Z,41.47
2023-02-15T12:28:38.999Z,41.89
2023-02-15T12:31:46.388Z,42.14
2023-02-15T12:34:40.223Z,41.26
2023-02-15T12:37:19.206Z,41.28
2023-02-15T12:39:59.939Z,41.76
2023-02-15T12:42:32.734Z,41.06
2023-02-15T12:45:27.243Z,40.98
2023-02-15T12:48:17.630Z,39.60
2023-02-15T12:50:55.076Z,39.44
2023-02-15T12:53:36.505Z,38.85
2023-02-15T12:56:07.856Z,39.44
2023-02-15T12:58:38.544Z,39.35
2023-02-15T13:01:18.360Z,39.66
2023-02-15T13:04:09.739Z,39.51
2023-02-15T13:06:38.712Z,39.52
2023-02-15T13:09:19.746Z,39.46
2023-02-15T13:11:49.571Z,39.18
2023-02-15T13:14:25.292Z,39.33
2023-02-15T13:16:58.955Z,39.47
2023-02-15T13:19:45.293Z,39.48
2023-02-15T13:22:22.536Z,39.13
2023-02-15T13:24:56.535Z,39.38
2023-02-15T13:27:32.551Z,39.31
2023-02-15T13:30:05.158Z,38.94
2023-02-15T13:32:38.895Z,38.93
2023-02-15T13:35:16.526Z,38.68
2023-02-15T13:38:15.438Z,38.26
2023-02-15T13:41:04.361Z,50.37
2023-02-15T13:43:50.146Z,52.24
2023-02-15T13:46:56.313Z,44.26
2023-02-15T13:49:48.567Z,39.36
2023-02-15T13:52:23.272Z,38.30
2023-02-15T13:55:20.275Z,37.43
2023-02-15T13:58:30.875Z,37.25
2023-02-15T14:01:14.213Z,37.13
2023-02-15T14:03:52.112Z,36.42
2023-02-15T14:06:50.307Z,37.05
2023-02-15T14:09:47.016Z,36.77
2023-02-15T14:12:42.624Z,36.57
2023-02-15T14:15:37.479Z,37.33
2023-02-15T14:18:39.542Z,37.90
2023-02-15T14:21:19.749Z,37.00
2023-02-15T14:24:20.912Z,36.71
2023-02-15T14:27:25.101Z,37.01
2023-02-15T14:30:00.747Z,37.02
2023-02-15T14:32:44.306Z,37.18
2023-02-15T14:35:18.633Z,37.00
2023-02-15T14:38:18.325Z,37.18
2023-02-15T14:41:05.024Z,37.31
2023-02-15T14:43:51.222Z,36.83
2023-02-15T14:46:49.196Z,36.67
2023-02-15T14:49:32.957Z,36.34
2023-02-15T14:52:08.957Z,36.35
2023-02-15T14:54:43.002Z,36.12
2023-02-15T14:57:17.393Z,36.26
2023-02-15T14:59:59.866Z,45.85
2023-02-15T15:02:41.944Z,47.13
2023-02-15T15:05:25.392Z,44.01
2023-02-15T15:07:58.574Z,42.95
2023-02-15T15:10:38.816Z,40.91
2023-02-15T15:13:36.808Z,37.97
2023-02-15T15:16:30.540Z,36.24
2023-02-15T15:18:59.915Z,36.58
2023-02-15T15:21:53.750Z,34.64
2023-02-15T15:24:45.900Z,34.48
2023-02-15T15:27:44.477Z,33.94
2023-02-15T15:30:25.265Z,34.07
2023-02-15T15:33:00.317Z,34.49
2023-02-15T15:35:52.761Z,34.43
2023-02-15T15:38:59.008Z,34.76
2023-02-15T15:41:47.370Z,34.87
2023-02-15T15:44:33.174Z,35.45
2023-02-15T15:47:21.839Z,35.37
2023-02-15T15:49:50.400Z,35.92
2023-02-15T15:52:21.196Z,36.32
2023-02-15T15:54:53.572Z,36.01
2023-02-15T15:57:36.320Z,36.05
2023-02-15T16:00:09.515Z,36.02
2023-02-15T16:02:54.523Z,36.39
2023-02-15T16:05:23.677Z,36.45
2023-02-15T16:07:52.382Z,36.63
2023-02-15T16:10:28.332Z,36.33
2023-02-15T16:12:57.166Z,37.57
2023-02-15T16:15:48.028Z,36.80
2023-02-15T16:18:18.318Z,37.17
2023-02-15T16:21:00.238Z,37.13
2023-02-15T16:23:50.381Z,36.83
2023-02-15T16:27:07.509Z,36.80
2023-02-15T16:29:36.849Z,36.95
2023-02-15T16:32:19.279Z,37.00
2023-02-15T16:35:02.515Z,37.10
2023-02-15T16:37:35.369Z,36.93
2023-02-15T16:40:05.861Z,37.25
2023-02-15T16:42:35.487Z,37.33
2023-02-15T16:45:16.375Z,37.33
2023-02-15T16:47:48.196Z,37.43
2023-02-15T16:50:27.974Z,37.46
2023-02-15T16:52:59.275Z,37.50
2023-02-15T16:55:36.758Z,37.64
2023-02-15T16:58:07.467Z,38.03
2023-02-15T17:00:38.287Z,38.73
2023-02-15T17:03:14.923Z,38.13
2023-02-15T17:05:58.007Z,38.11
2023-02-15T17:08:40.344Z,38.02
2023-02-15T17:11:22.511Z,37.99
2023-02-15T17:14:12.132Z,38.24
2023-02-15T17:16:50.149Z,38.43
2023-02-15T17:19:36.635Z,38.57
2023-02-15T17:22:07.719Z,38.62
2023-02-15T17:24:45.578Z,38.62
2023-02-15T17:27:20.426Z,38.55
2023-02-15T17:29:59.013Z,38.76
2023-02-15T17:32:30.902Z,38.84
2023-02-15T17:35:19.972Z,38.88
2023-02-15T17:37:50.366Z,39.17
2023-02-15T17:40:29.231Z,39.29
2023-02-15T17:42:58.857Z,39.39
2023-02-15T17:45:36.497Z,39.64
2023-02-15T17:48:06.454Z,39.67
2023-02-15T17:50:37.723Z,39.82
2023-02-15T17:53:09.153Z,39.78
2023-02-15T17:55:44.244Z,40.00
2023-02-15T17:58:16.953Z,40.03
2023-02-15T18:01:15.880Z,40.26
2023-02-15T18:04:09.547Z,40.38
2023-02-15T18:06:59.745Z,40.41
2023-02-15T18:09:47.624Z,40.50
2023-02-15T18:12:26.528Z,40.50
2023-02-15T18:14:57.326Z,40.42
2023-02-15T18:17:42.294Z,40.71
2023-02-15T18:20:26.843Z,40.83
2023-02-15T18:22:55.742Z,41.17
2023-02-15T18:25:27.378Z,41.18
2023-02-15T18:27:55.965Z,41.45
2023-02-15T18:30:28.174Z,41.53
2023-02-15T18:32:57.389Z,41.63
2023-02-15T18:35:31.022Z,41.52
2023-02-15T18:38:00.409Z,41.76
2023-02-15T18:40:30.557Z,41.86
2023-02-15T18:43:00.143Z,41.83
2023-02-15T18:45:31.676Z,41.89
2023-02-15T18:48:00.149Z,42.00
2023-02-15T18:50:33.033Z,42.13
2023-02-15T18:53:02.633Z,42.14
2023-02-15T18:55:35.317Z,42.31
2023-02-15T18:58:04.490Z,42.69
2023-02-15T19:00:34.577Z,42.75
2023-02-15T19:03:03.988Z,42.90
2023-02-15T19:05:33.264Z,42.95
2023-02-15T19:08:02.063Z,43.28
2023-02-15T19:10:32.481Z,43.45
2023-02-15T19:13:02.148Z,43.59
2023-02-15T19:15:32.568Z,43.87
2023-02-15T19:18:03.807Z,43.99
2023-02-15T19:20:45.695Z,44.16
2023-02-15T19:23:19.042Z,44.28
2023-02-15T19:25:48.052Z,44.42
2023-02-15T19:28:21.430Z,44.50
2023-02-15T19:30:50.505Z,44.60
2023-02-15T19:33:20.485Z,44.74
2023-02-15T19:35:56.008Z,44.92
2023-02-15T19:38:29.976Z,44.78
2023-02-15T19:41:02.066Z,44.76
2023-02-15T19:43:31.229Z,44.91
2023-02-15T19:46:01.564Z,45.07
2023-02-15T19:48:30.770Z,45.11
2023-02-15T19:51:03.693Z,45.26
2023-02-15T19:53:32.763Z,45.34
2023-02-15T19:56:01.579Z,45.47
2023-02-15T19:58:30.675Z,45.54
2023-02-15T20:01:02.119Z,45.45
2023-02-15T20:03:34.684Z,45.33
2023-02-15T20:06:03.817Z,45.50
2023-02-15T20:08:34.331Z,45.58
2023-02-15T20:11:03.236Z,45.62
2023-02-15T20:13:33.641Z,45.75
2023-02-15T20:16:04.028Z,45.78
2023-02-15T20:18:32.748Z,45.75
2023-02-15T20:21:04.549Z,45.77
2023-02-15T20:23:37.029Z,45.88
2023-02-15T20:26:18.283Z,46.08
2023-02-15T20:28:48.202Z,46.00
2023-02-15T20:31:19.105Z,46.19
2023-02-15T20:33:52.686Z,46.28
2023-02-15T20:36:22.091Z,46.35
2023-02-15T20:38:50.585Z,46.49
2023-02-15T20:41:36.799Z,46.75
2023-02-15T20:44:24.604Z,46.79
2023-02-15T20:46:55.049Z,46.86
2023-02-15T20:49:25.055Z,47.01
2023-02-15T20:51:54.587Z,47.17
2023-02-15T20:54:26.810Z,47.27
2023-02-15T20:56:55.624Z,47.36
2023-02-15T20:59:31.759Z,47.59
2023-02-15T21:02:07.201Z,47.74
2023-02-15T21:04:36.246Z,47.83
2023-02-15T21:07:05.872Z,47.97
2023-02-15T21:09:36.095Z,48.11
2023-02-15T21:12:06.295Z,48.30
2023-02-15T21:14:36.904Z,48.49
2023-02-15T21:17:06.570Z,48.55
2023-02-15T21:19:39.097Z,48.72
2023-02-15T21:22:13.661Z,48.78
2023-02-15T21:24:50.508Z,48.90
2023-02-15T21:27:19.203Z,48.99
2023-02-15T21:29:48.937Z,49.16
2023-02-15T21:32:19.280Z,49.23
2023-02-15T21:34:47.931Z,49.31
2023-02-15T21:37:31.160Z,49.36
2023-02-15T21:39:59.957Z,49.52
2023-02-15T21:42:47.882Z,49.66
2023-02-15T21:45:36.104Z,49.66
2023-02-15T21:48:06.191Z,49.71
2023-02-15T21:50:53.452Z,49.78
2023-02-15T21:53:32.604Z,49.84
2023-02-15T21:56:05.075Z,49.98
2023-02-15T21:58:36.266Z,49.95
2023-02-15T22:01:07.226Z,50.07
2023-02-15T22:03:37.896Z,50.16
2023-02-15T22:06:06.844Z,50.38
2023-02-15T22:08:36.264Z,50.41
2023-02-15T22:11:12.853Z,50.34
2023-02-15T22:13:42.687Z,50.41
2023-02-15T22:16:22.665Z,50.52
2023-02-15T22:18:54.263Z,50.56
2023-02-15T22:21:25.445Z,50.63
2023-02-15T22:23:53.883Z,50.68
2023-02-15T22:26:24.662Z,50.76
2023-02-15T22:28:53.492Z,50.85
2023-02-15T22:31:22.609Z,50.99
2023-02-15T22:33:50.957Z,51.05
2023-02-15T22:36:26.820Z,51.11
2023-02-15T22:38:56.170Z,51.04
2023-02-15T22:41:28.208Z,51.11
2023-02-15T22:43:56.892Z,51.24
2023-02-15T22:46:25.393Z,51.26
2023-02-15T22:48:54.307Z,51.31
2023-02-15T22:51:23.962Z,51.38
2023-02-15T22:53:53.861Z,51.59
2023-02-15T22:56:40.524Z,51.57
2023-02-15T22:59:24.295Z,51.69
2023-02-15T23:01:53.834Z,51.67
2023-02-15T23:04:28.725Z,51.79
2023-02-15T23:06:59.489Z,51.88
2023-02-15T23:09:29.180Z,51.97
2023-02-15T23:11:59.778Z,52.11
2023-02-15T23:14:35.331Z,52.13
2023-02-15T23:17:04.014Z,52.19
2023-02-15T23:19:33.198Z,52.29
2023-02-15T23:22:02.113Z,52.25
2023-02-15T23:24:34.386Z,52.34
2023-02-15T23:27:08.322Z,52.50
2023-02-15T23:29:37.627Z,52.62
2023-02-15T23:32:08.855Z,52.69
2023-02-15T23:34:37.510Z,52.76
2023-02-15T23:37:06.892Z,52.75
2023-02-15T23:39:55.100Z,52.87
2023-02-15T23:42:29.973Z,52.94
2023-02-15T23:44:59.722Z,53.05
2023-02-15T23:47:52.944Z,53.20
2023-02-15T23:50:28.413Z,53.26
2023-02-15T23:52:57.098Z,53.37
2023-02-15T23:55:39.477Z,53.48
2023-02-15T23:58:13.620Z,53.54
